Time;durP1;ratioP1;P1;durP2;ratioP2;P2;SDS_P1;SDS_P2;PMS_P1;PMS_P2;Temp;Humidity;BMP_temperature;BMP_pressure;BME280_temperature;BME280_humidity;BME280_pressure;Samples;Min_cycle;Max_cycle;Signal;HPM_P1;HPM_P2
2023/10/11 00:00:59;;;;;;;8.35;4.97;;;;;;;;;;5094361;28;20763;-66
2023/10/11 00:03:33;;;;;;;9.68;5.20;;;;;;;;;;5094278;28;20459;-67
2023/10/11 00:06:00;;;;;;;14.00;6.03;;;;;;;;;;5090822;28;20945;-68
2023/10/11 00:08:29;;;;;;;9.27;5.03;;;;;;;;;;5093720;28;20490;-67
2023/10/11 00:10:59;;;;;;;13.50;5.13;;;;;;;;;;5093922;28;20977;-67
2023/10/11 00:13:28;;;;;;;13.38;6.10;;;;;;;;;;5094174;28;20769;-67
2023/10/11 00:15:55;;;;;;;9.38;5.10;;;;;;;;;;5093897;28;20405;-66
2023/10/11 00:18:23;;;;;;;11.38;4.88;;;;;;;;;;5093857;28;20822;-67
2023/10/11 00:20:56;;;;;;;10.05;5.50;;;;;;;;;;5093758;28;20405;-67
2023/10/11 00:23:24;;;;;;;10.18;4.97;;;;;;;;;;5090003;28;20415;-67
2023/10/11 00:25:52;;;;;;;10.30;5.17;;;;;;;;;;5085615;28;20917;-67
2023/10/11 00:28:24;;;;;;;8.23;4.90;;;;;;;;;;5093822;28;20401;-66
2023/10/11 00:30:54;;;;;;;7.22;4.60;;;;;;;;;;5089746;28;20497;-67
2023/10/11 00:33:21;;;;;;;9.33;4.63;;;;;;;;;;5093689;28;20420;-67
2023/10/11 00:35:49;;;;;;;10.82;5.10;;;;;;;;;;5093220;28;20417;-67
2023/10/11 00:38:19;;;;;;;9.38;5.10;;;;;;;;;;5093584;28;20463;-67
2023/10/11 00:40:48;;;;;;;11.95;5.00;;;;;;;;;;5093443;28;20916;-67
2023/10/11 00:43:17;;;;;;;10.97;5.40;;;;;;;;;;5093591;28;20464;-67
2023/10/11 00:45:46;;;;;;;9.57;4.77;;;;;;;;;;5093204;28;20428;-67
2023/10/11 00:48:19;;;;;;;10.15;5.03;;;;;;;;;;5093500;28;21089;-67
2023/10/11 00:50:49;;;;;;;9.70;4.90;;;;;;;;;;5090491;28;20428;-67
2023/10/11 00:53:16;;;;;;;11.75;4.65;;;;;;;;;;5093346;28;20495;-68
2023/10/11 00:55:43;;;;;;;11.18;5.15;;;;;;;;;;5081828;28;20762;-67
2023/10/11 00:58:15;;;;;;;12.18;5.30;;;;;;;;;;5093166;28;20784;-67
2023/10/11 01:00:42;;;;;;;9.10;4.88;;;;;;;;;;5093294;28;20429;-66
2023/10/11 01:03:10;;;;;;;11.02;5.30;;;;;;;;;;5093324;28;20410;-67
2023/10/11 01:05:43;;;;;;;9.75;4.80;;;;;;;;;;5093081;28;20555;-67
2023/10/11 01:08:11;;;;;;;8.57;4.93;;;;;;;;;;5088583;28;20872;-67
2023/10/11 01:10:38;;;;;;;11.70;5.38;;;;;;;;;;5093032;28;20420;-66
2023/10/11 01:13:05;;;;;;;10.27;4.90;;;;;;;;;;5092928;28;20410;-67
2023/10/11 01:15:33;;;;;;;12.60;4.70;;;;;;;;;;5092780;28;20399;-66
2023/10/11 01:18:00;;;;;;;11.25;5.60;;;;;;;;;;5092924;28;20410;-67
2023/10/11 01:20:31;;;;;;;12.63;4.75;;;;;;;;;;5092766;28;20405;-67
2023/10/11 01:22:59;;;;;;;12.60;5.40;;;;;;;;;;5089442;28;20455;-66
2023/10/11 01:25:26;;;;;;;14.10;5.38;;;;;;;;;;5092122;28;20414;-67
2023/10/11 01:27:53;;;;;;;12.60;5.03;;;;;;;;;;5092892;28;20422;-67
2023/10/11 01:30:20;;;;;;;15.13;5.00;;;;;;;;;;5092668;28;20455;-67
2023/10/11 01:32:48;;;;;;;11.73;4.85;;;;;;;;;;5092661;28;20413;-67
2023/10/11 01:35:20;;;;;;;10.43;5.40;;;;;;;;;;5092446;28;20417;-67
2023/10/11 01:37:48;;;;;;;10.00;5.07;;;;;;;;;;5092508;28;20414;-67
2023/10/11 01:40:21;;;;;;;13.05;5.00;;;;;;;;;;5092084;28;20414;-67
2023/10/11 01:42:50;;;;;;;14.90;5.78;;;;;;;;;;5089497;28;20976;-67
2023/10/11 01:45:17;;;;;;;10.43;5.10;;;;;;;;;;5092050;28;20406;-67
2023/10/11 01:47:46;;;;;;;11.98;5.20;;;;;;;;;;5092148;28;20428;-66
2023/10/11 01:50:13;;;;;;;11.10;5.20;;;;;;;;;;5092370;28;20444;-67
2023/10/11 01:52:40;;;;;;;12.75;5.47;;;;;;;;;;5093659;28;20418;-67
2023/10/11 01:55:10;;;;;;;10.15;5.20;;;;;;;;;;5085287;28;20808;-67
2023/10/11 01:57:40;;;;;;;13.52;5.13;;;;;;;;;;5090407;28;20455;-67
2023/10/11 02:00:13;;;;;;;11.35;5.32;;;;;;;;;;5092066;28;20485;-66
2023/10/11 02:02:44;;;;;;;14.73;5.35;;;;;;;;;;5089659;28;20489;-68
2023/10/11 02:05:12;;;;;;;11.68;5.07;;;;;;;;;;5092215;28;20414;-68
2023/10/11 02:07:40;;;;;;;12.85;4.90;;;;;;;;;;5088135;28;20483;-66
2023/10/11 02:10:07;;;;;;;9.18;4.85;;;;;;;;;;5091679;28;20412;-66
2023/10/11 02:12:35;;;;;;;9.70;5.40;;;;;;;;;;5091599;28;20401;-67
2023/10/11 02:15:07;;;;;;;11.88;5.50;;;;;;;;;;5091534;28;20450;-66
2023/10/11 02:17:37;;;;;;;14.50;5.15;;;;;;;;;;5091402;28;20413;-69
2023/10/11 02:20:06;;;;;;;10.32;5.55;;;;;;;;;;5086838;28;20436;-67
2023/10/11 02:22:33;;;;;;;13.73;5.38;;;;;;;;;;5091591;28;20447;-67
2023/10/11 02:25:00;;;;;;;11.52;5.50;;;;;;;;;;5083485;28;20484;-67
2023/10/11 02:27:27;;;;;;;11.13;4.90;;;;;;;;;;5087653;28;21091;-68
2023/10/11 02:29:54;;;;;;;10.43;5.10;;;;;;;;;;5091184;28;20406;-67
2023/10/11 02:32:23;;;;;;;12.35;5.22;;;;;;;;;;5091274;28;20471;-67
2023/10/11 02:34:53;;;;;;;10.90;5.00;;;;;;;;;;5088381;28;20406;-67
2023/10/11 02:37:22;;;;;;;10.30;4.82;;;;;;;;;;5091303;28;20406;-68
2023/10/11 02:39:51;;;;;;;11.35;5.35;;;;;;;;;;5091045;28;20511;-67
2023/10/11 02:42:19;;;;;;;9.15;4.97;;;;;;;;;;5091362;28;20459;-67
2023/10/11 02:44:48;;;;;;;10.20;5.35;;;;;;;;;;5091003;28;20420;-67
2023/10/11 02:47:22;;;;;;;10.53;4.93;;;;;;;;;;5086805;28;20877;-67
2023/10/11 02:49:52;;;;;;;12.55;5.53;;;;;;;;;;5090989;28;20477;-68
2023/10/11 02:52:19;;;;;;;14.50;5.47;;;;;;;;;;5087263;28;20907;-67
2023/10/11 02:54:46;;;;;;;10.00;5.03;;;;;;;;;;5082990;28;20441;-67
2023/10/11 02:57:18;;;;;;;12.68;4.97;;;;;;;;;;5086751;28;20402;-67
2023/10/11 02:59:50;;;;;;;12.50;5.30;;;;;;;;;;5087375;28;20441;-67
2023/10/11 03:02:17;;;;;;;11.38;5.25;;;;;;;;;;5090852;28;20406;-67
2023/10/11 03:04:44;;;;;;;12.23;5.43;;;;;;;;;;5090970;28;20497;-67
2023/10/11 03:07:15;;;;;;;10.77;4.78;;;;;;;;;;5090780;28;20438;-68
2023/10/11 03:09:42;;;;;;;9.88;4.95;;;;;;;;;;5090607;28;20410;-66
2023/10/11 03:12:18;;;;;;;11.00;5.10;;;;;;;;;;5087198;28;20768;-68
2023/10/11 03:14:45;;;;;;;9.93;4.97;;;;;;;;;;5090708;28;20406;-67
2023/10/11 03:17:13;;;;;;;9.98;4.50;;;;;;;;;;5090618;28;20494;-67
2023/10/11 03:19:42;;;;;;;10.82;5.32;;;;;;;;;;5090570;28;20416;-67
2023/10/11 03:22:09;;;;;;;13.27;5.00;;;;;;;;;;5090342;28;20410;-67
2023/10/11 03:24:40;;;;;;;9.65;5.25;;;;;;;;;;5080995;28;20414;-68
2023/10/11 03:27:10;;;;;;;10.88;5.18;;;;;;;;;;5086322;28;20512;-67
2023/10/11 03:29:40;;;;;;;11.15;5.00;;;;;;;;;;5090257;28;20475;-66
2023/10/11 03:32:07;;;;;;;15.33;5.70;;;;;;;;;;5090134;28;20420;-67
2023/10/11 03:34:34;;;;;;;10.50;4.75;;;;;;;;;;5090251;28;20482;-67
2023/10/11 03:37:07;;;;;;;12.63;5.25;;;;;;;;;;5090344;28;20730;-67
2023/10/11 03:39:44;;;;;;;16.00;5.40;;;;;;;;;;5090330;28;20417;-67
2023/10/11 03:42:17;;;;;;;12.38;5.30;;;;;;;;;;5086901;28;21399;-66
2023/10/11 03:44:47;;;;;;;13.63;5.10;;;;;;;;;;5090409;28;20410;-67
2023/10/11 03:47:15;;;;;;;10.77;5.30;;;;;;;;;;5086656;28;20421;-67
2023/10/11 03:49:51;;;;;;;11.07;5.13;;;;;;;;;;5090167;28;20418;-67
2023/10/11 03:52:22;;;;;;;9.63;5.05;;;;;;;;;;5086975;28;20751;-67
2023/10/11 03:54:53;;;;;;;10.37;4.77;;;;;;;;;;5080989;28;20478;-67
2023/10/11 03:57:21;;;;;;;11.80;4.63;;;;;;;;;;5086499;28;20443;-67
2023/10/11 03:59:51;;;;;;;11.63;5.22;;;;;;;;;;5089619;28;20398;-67
2023/10/11 04:02:18;;;;;;;11.18;4.78;;;;;;;;;;5090001;28;20410;-67
2023/10/11 04:04:48;;;;;;;11.52;4.75;;;;;;;;;;5090437;28;20406;-66
2023/10/11 04:07:16;;;;;;;9.25;4.80;;;;;;;;;;5090069;28;20420;-66
2023/10/11 04:09:46;;;;;;;11.30;4.50;;;;;;;;;;5089948;28;20418;-67
2023/10/11 04:12:13;;;;;;;11.45;5.18;;;;;;;;;;5089928;28;20405;-68
2023/10/11 04:14:44;;;;;;;10.27;5.10;;;;;;;;;;5090597;28;20449;-67
2023/10/11 04:17:24;;;;;;;10.43;5.03;;;;;;;;;;5086971;28;20409;-67
2023/10/11 04:19:52;;;;;;;9.73;4.70;;;;;;;;;;5089852;28;20985;-67
2023/10/11 04:22:23;;;;;;;12.48;5.45;;;;;;;;;;5089891;28;20506;-66
2023/10/11 04:24:53;;;;;;;9.82;4.72;;;;;;;;;;5080888;28;20401;-67
2023/10/11 04:30:24;;;;;;;13.10;5.20;;;;;;;;;;5085669;28;20477;-67
2023/10/11 04:32:55;;;;;;;9.27;5.05;;;;;;;;;;5086552;28;20848;-67
2023/10/11 04:35:24;;;;;;;10.77;4.70;;;;;;;;;;5088626;28;20448;-68
2023/10/11 04:38:01;;;;;;;10.20;4.95;;;;;;;;;;5089839;28;20454;-67
2023/10/11 04:43:24;;;;;;;11.32;5.10;;;;;;;;;;5085544;28;20476;-67
2023/10/11 04:45:55;;;;;;;10.77;5.50;;;;;;;;;;5090770;28;20398;-67
2023/10/11 04:48:30;;;;;;;11.73;5.75;;;;;;;;;;5093543;28;20425;-67
2023/10/11 04:51:04;;;;;;;13.25;5.40;;;;;;;;;;5093256;28;20500;-67
2023/10/11 04:53:35;;;;;;;11.57;5.22;;;;;;;;;;5089520;28;20422;-69
2023/10/11 04:56:51;;;;;;;11.05;5.72;;;;;;;;;;5085815;28;20852;-67
2023/10/11 04:58:51;;;;;;;10.65;5.38;;;;;;;;;;5090972;28;20896;-66
2023/10/11 05:01:22;;;;;;;12.18;5.63;;;;;;;;;;5093158;28;20917;-66
2023/10/11 05:03:58;;;;;;;12.25;5.20;;;;;;;;;;5093333;28;20409;-68
2023/10/11 05:06:30;;;;;;;13.15;5.30;;;;;;;;;;5092875;28;20496;-67
2023/10/11 05:09:06;;;;;;;11.07;4.95;;;;;;;;;;5093168;28;20418;-67
2023/10/11 05:11:36;;;;;;;11.57;5.33;;;;;;;;;;5089073;28;20699;-67
2023/10/11 05:14:10;;;;;;;10.70;5.57;;;;;;;;;;5093481;28;20818;-67
2023/10/11 05:16:44;;;;;;;13.60;5.67;;;;;;;;;;5090235;28;20504;-67
2023/10/11 05:19:14;;;;;;;11.00;5.65;;;;;;;;;;5094639;28;20410;-66
2023/10/11 05:21:43;;;;;;;9.85;5.50;;;;;;;;;;5093141;28;20467;-67
2023/10/11 05:24:29;;;;;;;11.13;5.18;;;;;;;;;;5091324;28;20409;-67
2023/10/11 05:27:11;;;;;;;13.73;5.30;;;;;;;;;;5086313;28;20487;-68
2023/10/11 05:30:05;;;;;;;12.00;5.55;;;;;;;;;;5090094;28;20420;-68
2023/10/11 05:32:32;;;;;;;10.40;5.10;;;;;;;;;;5089917;28;20492;-67
2023/10/11 05:35:11;;;;;;;12.90;5.18;;;;;;;;;;5092702;28;20884;-67
2023/10/11 05:51:26;;;;;;;9.02;4.85;;;;;;;;;;5090327;28;20409;-68
2023/10/11 05:53:53;;;;;;;15.50;5.05;;;;;;;;;;5091043;28;20422;-66
2023/10/11 05:56:21;;;;;;;10.85;4.90;;;;;;;;;;5089085;28;20459;-67
2023/10/11 05:58:49;;;;;;;12.55;5.15;;;;;;;;;;5092222;28;20497;-67
2023/10/11 06:01:17;;;;;;;11.00;5.33;;;;;;;;;;5091916;28;20493;-67
2023/10/11 06:03:48;;;;;;;8.57;4.90;;;;;;;;;;5092313;28;20409;-67
2023/10/11 06:06:26;;;;;;;12.80;5.05;;;;;;;;;;5091766;28;20930;-66
2023/10/11 06:08:54;;;;;;;10.52;4.60;;;;;;;;;;5091520;28;20920;-66
2023/10/11 06:11:24;;;;;;;9.57;5.07;;;;;;;;;;5091385;28;20425;-68
2023/10/11 06:13:52;;;;;;;13.57;5.40;;;;;;;;;;5090613;28;20436;-67
2023/10/11 06:16:22;;;;;;;9.98;4.93;;;;;;;;;;5091264;28;20416;-67
2023/10/11 06:18:57;;;;;;;9.32;4.90;;;;;;;;;;5085835;28;20516;-67
2023/10/11 06:21:30;;;;;;;9.45;4.97;;;;;;;;;;5090000;28;20891;-66
2023/10/11 06:23:57;;;;;;;10.82;4.90;;;;;;;;;;5088266;28;20398;-67
2023/10/11 06:29:15;;;;;;;9.73;4.55;;;;;;;;;;5089891;28;20717;-68
2023/10/11 06:31:43;;;;;;;12.00;5.03;;;;;;;;;;5091135;28;20413;-67
2023/10/11 06:34:23;;;;;;;12.02;5.20;;;;;;;;;;5091388;28;20405;-67
2023/10/11 06:36:50;;;;;;;9.23;4.80;;;;;;;;;;5084670;28;20418;-68
2023/10/11 06:42:06;;;;;;;13.48;4.65;;;;;;;;;;5090281;28;20519;-68
2023/10/11 06:44:34;;;;;;;9.65;4.55;;;;;;;;;;5091408;28;20414;-67
2023/10/11 06:47:03;;;;;;;11.82;4.80;;;;;;;;;;5090864;28;20441;-67
2023/10/11 06:49:40;;;;;;;11.30;4.50;;;;;;;;;;5090895;28;20748;-67
2023/10/11 06:52:07;;;;;;;8.27;4.63;;;;;;;;;;5087981;28;20402;-67
2023/10/11 06:54:35;;;;;;;8.38;4.57;;;;;;;;;;5083640;28;20555;-67
2023/10/11 06:57:02;;;;;;;11.02;5.22;;;;;;;;;;5087019;28;20497;-67
2023/10/11 06:59:29;;;;;;;9.00;4.50;;;;;;;;;;5090981;28;20501;-67
2023/10/11 07:01:59;;;;;;;11.93;4.68;;;;;;;;;;5090653;28;20416;-66
2023/10/11 07:04:36;;;;;;;10.73;4.43;;;;;;;;;;5090648;28;20406;-68
2023/10/11 07:07:07;;;;;;;9.80;4.22;;;;;;;;;;5089969;28;20405;-66
2023/10/11 07:09:39;;;;;;;8.98;4.60;;;;;;;;;;5087623;28;20401;-72
2023/10/11 07:12:28;;;;;;;10.93;4.93;;;;;;;;;;5084451;28;20486;-64
2023/10/11 07:14:55;;;;;;;10.23;4.60;;;;;;;;;;5088250;28;20471;-63
2023/10/11 07:17:22;;;;;;;9.43;4.78;;;;;;;;;;5082769;28;20796;-66
2023/10/11 07:19:51;;;;;;;10.48;4.53;;;;;;;;;;5086674;28;20410;-65
2023/10/11 07:22:20;;;;;;;7.43;3.90;;;;;;;;;;5089129;28;20485;-64
2023/10/11 07:24:55;;;;;;;10.45;4.30;;;;;;;;;;5082171;28;20429;-67
2023/10/11 07:27:37;;;;;;;11.05;4.28;;;;;;;;;;5085128;28;20422;-66
2023/10/11 07:30:06;;;;;;;9.85;4.70;;;;;;;;;;5089740;28;20414;-67
2023/10/11 07:32:36;;;;;;;9.38;4.38;;;;;;;;;;5086520;28;20823;-65
2023/10/11 07:35:08;;;;;;;10.05;4.80;;;;;;;;;;5090049;28;20410;-65
2023/10/11 07:37:39;;;;;;;8.40;4.00;;;;;;;;;;5090332;28;20442;-65
2023/10/11 07:40:10;;;;;;;9.52;4.32;;;;;;;;;;5090170;28;20511;-65
2023/10/11 07:42:38;;;;;;;7.05;4.20;;;;;;;;;;5089929;28;20902;-65
2023/10/11 07:45:12;;;;;;;9.38;4.10;;;;;;;;;;5090083;28;20859;-63
2023/10/11 07:47:45;;;;;;;11.00;4.47;;;;;;;;;;5090112;28;20432;-65
2023/10/11 07:50:14;;;;;;;8.68;4.40;;;;;;;;;;5089948;28;20432;-65
2023/10/11 07:52:43;;;;;;;9.90;4.60;;;;;;;;;;5089744;28;20406;-66
2023/10/11 07:55:12;;;;;;;7.00;4.03;;;;;;;;;;5080379;28;20906;-65
2023/10/11 07:57:44;;;;;;;8.60;4.20;;;;;;;;;;5087935;28;20406;-64
2023/10/11 08:00:18;;;;;;;11.13;4.10;;;;;;;;;;5089592;28;20414;-65
2023/10/11 08:02:56;;;;;;;9.20;4.10;;;;;;;;;;5089797;28;20421;-64
2023/10/11 08:05:25;;;;;;;10.18;4.70;;;;;;;;;;5082989;28;20410;-63
2023/10/11 08:07:55;;;;;;;13.15;4.47;;;;;;;;;;5088220;28;20961;-65
2023/10/11 08:10:33;;;;;;;8.47;3.80;;;;;;;;;;5089280;28;20406;-64
2023/10/11 08:13:01;;;;;;;9.38;4.10;;;;;;;;;;5089074;28;20446;-64
2023/10/11 08:15:28;;;;;;;10.70;4.13;;;;;;;;;;5089459;28;20459;-65
2023/10/11 08:17:55;;;;;;;8.25;3.92;;;;;;;;;;5090984;28;20440;-64
2023/10/11 08:20:28;;;;;;;7.78;4.22;;;;;;;;;;5093348;28;20410;-64
2023/10/11 08:22:57;;;;;;;10.00;4.50;;;;;;;;;;5093400;28;20458;-69
2023/10/11 08:25:28;;;;;;;8.48;4.00;;;;;;;;;;5088067;28;20406;-69
2023/10/11 08:28:12;;;;;;;9.90;4.40;;;;;;;;;;5089885;28;20487;-71
2023/10/11 08:30:39;;;;;;;8.73;4.40;;;;;;;;;;5089354;28;20492;-68
2023/10/11 08:33:07;;;;;;;8.32;4.38;;;;;;;;;;5093251;28;21094;-68
2023/10/11 08:35:34;;;;;;;10.32;4.05;;;;;;;;;;5092120;28;20447;-69
2023/10/11 08:38:04;;;;;;;11.90;4.50;;;;;;;;;;5088853;28;20397;-69
2023/10/11 08:40:35;;;;;;;9.98;4.63;;;;;;;;;;5088788;28;20498;-70
2023/10/11 08:43:02;;;;;;;9.15;4.47;;;;;;;;;;5093169;28;20470;-70
2023/10/11 08:45:33;;;;;;;13.90;6.82;;;;;;;;;;5091611;28;20406;-72
2023/10/11 08:48:00;;;;;;;12.73;5.93;;;;;;;;;;5093906;28;20421;-70
2023/10/11 08:50:31;;;;;;;10.15;4.50;;;;;;;;;;5092208;28;20420;-67
2023/10/11 08:53:01;;;;;;;12.15;4.40;;;;;;;;;;5092268;28;20454;-68
2023/10/11 08:55:29;;;;;;;9.38;4.55;;;;;;;;;;5087195;28;20421;-66
2023/10/11 08:57:56;;;;;;;7.93;4.32;;;;;;;;;;5089313;28;20489;-69
2023/10/11 09:00:31;;;;;;;9.98;4.35;;;;;;;;;;5092272;28;20406;-69
2023/10/11 09:02:58;;;;;;;8.10;4.10;;;;;;;;;;5088862;28;20822;-70
2023/10/11 09:05:42;;;;;;;10.25;4.32;;;;;;;;;;5091967;28;20908;-67
2023/10/11 09:08:20;;;;;;;9.85;4.30;;;;;;;;;;5089700;28;20426;-68
2023/10/11 09:10:51;;;;;;;10.07;4.43;;;;;;;;;;5088777;28;20505;-66
2023/10/11 09:13:28;;;;;;;8.70;4.13;;;;;;;;;;5092015;28;20417;-73
2023/10/11 09:15:58;;;;;;;14.65;4.57;;;;;;;;;;5088707;28;20426;-71
2023/10/11 09:18:34;;;;;;;12.35;4.70;;;;;;;;;;5092304;28;20416;-71
2023/10/11 09:21:09;;;;;;;10.47;4.43;;;;;;;;;;5091300;28;20896;-72
2023/10/11 09:23:36;;;;;;;8.88;4.50;;;;;;;;;;5092520;28;20460;-63
2023/10/11 09:26:05;;;;;;;10.38;4.40;;;;;;;;;;5087477;28;20409;-63
2023/10/11 09:28:34;;;;;;;10.93;4.40;;;;;;;;;;5091872;28;20417;-63
2023/10/11 09:31:10;;;;;;;8.65;4.45;;;;;;;;;;5079823;28;20973;-63
2023/10/11 09:33:40;;;;;;;7.90;4.10;;;;;;;;;;5091993;28;20422;-63
2023/10/11 09:36:07;;;;;;;9.45;4.82;;;;;;;;;;5084330;28;20441;-63
2023/10/11 09:38:39;;;;;;;11.55;4.57;;;;;;;;;;5091351;28;20406;-64
2023/10/11 09:41:08;;;;;;;9.68;4.65;;;;;;;;;;5091523;28;20418;-64
2023/10/11 09:43:38;;;;;;;9.20;4.53;;;;;;;;;;5090258;28;20419;-63
2023/10/11 09:46:11;;;;;;;12.93;4.47;;;;;;;;;;5091412;28;20406;-63
2023/10/11 09:48:38;;;;;;;13.57;4.68;;;;;;;;;;5085307;28;20451;-70
2023/10/11 09:51:08;;;;;;;11.38;4.10;;;;;;;;;;5085793;28;20414;-66
2023/10/11 09:53:41;;;;;;;12.35;5.20;;;;;;;;;;5085511;28;20410;-66
2023/10/11 09:56:15;;;;;;;11.45;4.80;;;;;;;;;;5088696;28;20521;-64
2023/10/11 09:58:44;;;;;;;11.88;4.80;;;;;;;;;;5086799;28;20463;-65
2023/10/11 10:01:18;;;;;;;15.02;6.28;;;;;;;;;;5090665;28;20409;-64
2023/10/11 10:03:47;;;;;;;11.05;5.70;;;;;;;;;;5087357;28;20505;-65
2023/10/11 10:06:19;;;;;;;11.77;4.38;;;;;;;;;;5090476;28;20406;-65
2023/10/11 10:08:50;;;;;;;12.07;4.60;;;;;;;;;;5090984;28;20529;-64
2023/10/11 10:11:19;;;;;;;11.87;4.63;;;;;;;;;;5090414;28;20413;-65
2023/10/11 10:14:23;;;;;;;11.65;4.53;;;;;;;;;;5090831;28;20472;-65
2023/10/11 10:17:10;;;;;;;10.82;4.88;;;;;;;;;;5084182;28;20481;-65
2023/10/11 10:19:39;;;;;;;12.65;4.28;;;;;;;;;;5088876;28;20406;-65
2023/10/11 10:22:15;;;;;;;10.80;4.50;;;;;;;;;;5090688;28;20976;-64
2023/10/11 10:24:43;;;;;;;11.30;4.53;;;;;;;;;;5087938;28;20493;-64
2023/10/11 10:27:33;;;;;;;13.93;4.43;;;;;;;;;;5090375;28;20410;-65
2023/10/11 10:30:03;;;;;;;11.37;4.40;;;;;;;;;;5085732;28;20542;-66
2023/10/11 10:32:30;;;;;;;11.40;4.53;;;;;;;;;;5087999;28;20790;-65
2023/10/11 10:35:26;;;;;;;9.48;4.57;;;;;;;;;;5090381;28;20406;-70
2023/10/11 10:37:55;;;;;;;12.10;4.38;;;;;;;;;;5087636;28;20992;-69
2023/10/11 10:40:24;;;;;;;10.27;4.32;;;;;;;;;;5089346;28;20445;-70
2023/10/11 10:43:14;;;;;;;13.35;4.50;;;;;;;;;;5089712;28;20406;-71
2023/10/11 10:45:42;;;;;;;9.98;3.90;;;;;;;;;;5086236;28;20414;-67
2023/10/11 10:48:13;;;;;;;12.05;4.45;;;;;;;;;;5090154;28;20512;-70
2023/10/11 10:50:46;;;;;;;12.32;4.55;;;;;;;;;;5090338;28;20783;-72
2023/10/11 10:53:14;;;;;;;13.50;4.30;;;;;;;;;;5089203;28;20417;-68
2023/10/11 10:55:42;;;;;;;13.43;4.47;;;;;;;;;;5078282;28;20447;-68
2023/10/11 10:58:09;;;;;;;15.00;4.55;;;;;;;;;;5086548;28;20412;-68
2023/10/11 11:00:40;;;;;;;13.57;4.78;;;;;;;;;;5089685;28;20406;-67
2023/10/11 11:03:17;;;;;;;12.27;4.55;;;;;;;;;;5089853;28;20432;-67
2023/10/11 11:05:55;;;;;;;9.73;4.60;;;;;;;;;;5089931;28;20434;-68
2023/10/11 11:08:25;;;;;;;11.40;4.35;;;;;;;;;;5087143;28;20408;-67
2023/10/11 11:10:55;;;;;;;13.05;4.53;;;;;;;;;;5089794;28;20420;-68
2023/10/11 11:13:22;;;;;;;15.90;4.28;;;;;;;;;;5089671;28;20487;-68
2023/10/11 11:15:55;;;;;;;14.27;4.47;;;;;;;;;;5084940;28;21020;-68
2023/10/11 11:18:33;;;;;;;13.98;4.75;;;;;;;;;;5078338;28;20436;-68
2023/10/11 11:21:17;;;;;;;12.15;4.53;;;;;;;;;;5084281;28;20882;-68
2023/10/11 11:23:44;;;;;;;18.73;5.05;;;;;;;;;;5089711;28;20398;-66
2023/10/11 11:26:15;;;;;;;15.60;4.83;;;;;;;;;;5089413;28;20410;-69
2023/10/11 11:28:43;;;;;;;12.23;5.00;;;;;;;;;;5090078;28;20494;-67
2023/10/11 11:31:13;;;;;;;15.68;4.63;;;;;;;;;;5089383;28;20398;-68
2023/10/11 11:36:56;;;;;;;15.97;4.93;;;;;;;;;;5078657;28;20776;-68
2023/10/11 11:39:26;;;;;;;13.13;4.80;;;;;;;;;;5055943;28;20823;-68
2023/10/11 11:41:55;;;;;;;14.75;4.63;;;;;;;;;;5057854;28;20408;-68
2023/10/11 11:44:22;;;;;;;15.32;4.55;;;;;;;;;;5056295;28;20414;-67
2023/10/11 11:46:49;;;;;;;16.92;4.72;;;;;;;;;;5066489;28;20447;-67
2023/10/11 11:49:17;;;;;;;13.82;4.85;;;;;;;;;;5060838;28;20505;-67
2023/10/11 11:51:43;;;;;;;19.33;5.18;;;;;;;;;;5056425;28;20412;-67
2023/10/11 11:54:17;;;;;;;13.55;4.47;;;;;;;;;;5062802;28;20410;-68
2023/10/11 11:56:44;;;;;;;19.63;5.25;;;;;;;;;;5051900;28;20420;-66
2023/10/11 11:59:17;;;;;;;15.50;5.10;;;;;;;;;;5055541;28;20497;-66
2023/10/11 12:01:43;;;;;;;18.10;5.05;;;;;;;;;;5054712;28;20420;-68
2023/10/11 12:04:11;;;;;;;21.13;5.38;;;;;;;;;;5054568;28;20422;-67
2023/10/11 12:06:37;;;;;;;15.47;4.63;;;;;;;;;;5060099;28;20533;-66
2023/10/11 12:09:06;;;;;;;14.82;5.00;;;;;;;;;;5058320;28;21071;-66
2023/10/11 12:11:35;;;;;;;16.80;4.65;;;;;;;;;;5053118;28;20538;-67
2023/10/11 12:14:04;;;;;;;14.55;4.55;;;;;;;;;;5054385;28;20413;-66
2023/10/11 12:16:31;;;;;;;14.63;4.57;;;;;;;;;;5051742;28;20433;-65
2023/10/11 12:18:59;;;;;;;13.15;4.40;;;;;;;;;;5055520;28;20412;-67
2023/10/11 12:21:27;;;;;;;16.67;4.67;;;;;;;;;;5053319;28;20436;-67
2023/10/11 12:23:54;;;;;;;14.43;4.93;;;;;;;;;;5056479;28;20415;-70
2023/10/11 12:26:22;;;;;;;16.45;5.13;;;;;;;;;;5049019;28;20423;-69
2023/10/11 12:28:51;;;;;;;16.58;4.55;;;;;;;;;;5057564;28;20412;-69
2023/10/11 12:31:18;;;;;;;14.53;4.53;;;;;;;;;;5057923;28;20929;-69
2023/10/11 12:33:45;;;;;;;14.65;4.80;;;;;;;;;;5053292;28;20881;-71
2023/10/11 12:36:14;;;;;;;16.48;4.93;;;;;;;;;;5067035;28;20432;-68
2023/10/11 12:38:41;;;;;;;17.55;5.13;;;;;;;;;;5073643;28;20502;-68
2023/10/11 12:41:14;;;;;;;15.82;5.03;;;;;;;;;;5076525;28;20411;-69
2023/10/11 12:43:41;;;;;;;17.73;5.00;;;;;;;;;;5074762;28;20451;-70
2023/10/11 12:46:09;;;;;;;14.23;5.27;;;;;;;;;;5073236;28;20416;-68
2023/10/11 12:48:37;;;;;;;22.70;4.85;;;;;;;;;;5064186;28;20407;-67
2023/10/11 12:51:05;;;;;;;15.10;4.80;;;;;;;;;;5060303;28;20492;-63
2023/10/11 12:53:32;;;;;;;15.40;4.97;;;;;;;;;;5065071;28;20546;-63
2023/10/11 12:55:59;;;;;;;18.65;5.18;;;;;;;;;;5056310;28;20436;-63
2023/10/11 12:58:38;;;;;;;16.38;4.40;;;;;;;;;;5061386;28;20405;-63
2023/10/11 13:01:11;;;;;;;19.05;4.90;;;;;;;;;;5070216;28;20416;-64
2023/10/11 13:03:40;;;;;;;13.90;4.97;;;;;;;;;;5067356;28;20459;-63
2023/10/11 13:06:09;;;;;;;14.68;4.80;;;;;;;;;;5061284;28;20463;-63
2023/10/11 13:08:37;;;;;;;11.07;4.30;;;;;;;;;;5059370;28;20491;-63
2023/10/11 13:11:10;;;;;;;17.60;4.70;;;;;;;;;;5061951;28;20419;-64
2023/10/11 13:13:37;;;;;;;15.67;5.17;;;;;;;;;;5059096;28;20769;-65
2023/10/11 13:16:07;;;;;;;13.88;4.80;;;;;;;;;;5057220;28;20428;-65
2023/10/11 13:18:37;;;;;;;16.58;4.90;;;;;;;;;;5061954;28;20943;-63
2023/10/11 13:21:10;;;;;;;19.35;4.50;;;;;;;;;;5061121;28;20494;-63
2023/10/11 13:23:39;;;;;;;15.70;4.95;;;;;;;;;;5054676;28;20417;-63
2023/10/11 13:26:07;;;;;;;14.13;4.40;;;;;;;;;;5066077;28;20408;-62
2023/10/11 13:28:34;;;;;;;16.48;4.72;;;;;;;;;;5060495;28;20442;-63
2023/10/11 13:31:02;;;;;;;14.93;4.30;;;;;;;;;;5062497;28;20415;-63
2023/10/11 13:33:30;;;;;;;16.08;4.85;;;;;;;;;;5060885;28;20953;-63
2023/10/11 13:35:58;;;;;;;15.80;4.77;;;;;;;;;;5064198;28;20439;-63
2023/10/11 13:38:30;;;;;;;18.17;4.90;;;;;;;;;;5058696;28;20494;-63
2023/10/11 13:40:58;;;;;;;14.60;4.40;;;;;;;;;;5058720;28;20447;-62
2023/10/11 13:43:26;;;;;;;13.68;4.72;;;;;;;;;;5062471;28;20424;-63
2023/10/11 13:45:56;;;;;;;16.17;5.03;;;;;;;;;;5058611;28;20471;-63
2023/10/11 13:48:26;;;;;;;15.18;4.85;;;;;;;;;;5061928;28;20454;-63
2023/10/11 13:50:53;;;;;;;10.15;4.32;;;;;;;;;;5062566;28;20407;-63
2023/10/11 13:53:23;;;;;;;14.80;4.20;;;;;;;;;;5066349;28;20443;-63
2023/10/11 13:55:51;;;;;;;14.23;4.60;;;;;;;;;;5059573;28;20436;-63
2023/10/11 13:58:19;;;;;;;12.15;4.72;;;;;;;;;;5053746;28;20478;-63
2023/10/11 14:03:45;;;;;;;13.38;4.55;;;;;;;;;;5025280;28;20413;-63
2023/10/11 14:06:41;;;;;;;10.63;4.00;;;;;;;;;;5063145;28;20407;-63
2023/10/11 14:09:16;;;;;;;13.73;4.00;;;;;;;;;;5051022;28;20433;-63
2023/10/11 14:11:46;;;;;;;10.23;4.17;;;;;;;;;;5057351;28;20419;-63
2023/10/11 14:14:14;;;;;;;12.55;4.15;;;;;;;;;;5056389;28;20416;-63
2023/10/11 14:16:41;;;;;;;16.98;4.20;;;;;;;;;;5062203;28;20427;-63
2023/10/11 14:19:13;;;;;;;13.43;4.35;;;;;;;;;;5060119;28;20428;-64
2023/10/11 14:21:40;;;;;;;14.82;4.53;;;;;;;;;;5059611;28;20423;-64
2023/10/11 14:24:08;;;;;;;10.63;4.18;;;;;;;;;;5063382;28;20424;-64
2023/10/11 14:26:35;;;;;;;14.10;4.63;;;;;;;;;;5060090;28;20409;-64
2023/10/11 14:29:07;;;;;;;13.48;4.03;;;;;;;;;;5054213;28;20830;-64
2023/10/11 14:31:34;;;;;;;16.48;4.38;;;;;;;;;;5050885;28;20397;-64
2023/10/11 14:34:04;;;;;;;12.82;4.28;;;;;;;;;;5050976;28;20420;-64
2023/10/11 14:36:31;;;;;;;10.50;4.25;;;;;;;;;;5050346;28;20425;-61
2023/10/11 14:38:58;;;;;;;14.40;4.70;;;;;;;;;;5050796;28;20468;-63
2023/10/11 14:41:25;;;;;;;12.93;4.30;;;;;;;;;;5063217;28;20462;-63
2023/10/11 14:43:53;;;;;;;11.32;4.22;;;;;;;;;;5062807;28;20405;-63
2023/10/11 14:46:22;;;;;;;13.45;4.15;;;;;;;;;;5062529;28;20616;-63
2023/10/11 14:48:50;;;;;;;14.85;4.30;;;;;;;;;;5064782;28;20496;-63
2023/10/11 14:51:18;;;;;;;13.63;3.92;;;;;;;;;;5064806;28;20882;-64
2023/10/11 14:53:46;;;;;;;10.48;4.18;;;;;;;;;;5064077;28;20503;-65
2023/10/11 14:56:14;;;;;;;12.13;4.28;;;;;;;;;;5059266;28;20433;-65
2023/10/11 14:58:41;;;;;;;13.25;4.28;;;;;;;;;;5062693;28;20411;-65
2023/10/11 15:01:08;;;;;;;15.82;4.22;;;;;;;;;;5059397;28;20504;-64
2023/10/11 15:03:38;;;;;;;12.80;3.90;;;;;;;;;;5059141;28;20413;-65
2023/10/11 15:06:09;;;;;;;11.98;3.95;;;;;;;;;;5050330;28;20432;-66
2023/10/11 15:08:37;;;;;;;13.60;4.17;;;;;;;;;;5049272;28;20512;-66
2023/10/11 15:11:05;;;;;;;10.93;4.10;;;;;;;;;;5049867;28;20482;-65
2023/10/11 15:13:33;;;;;;;14.80;4.38;;;;;;;;;;5049894;28;20444;-65
2023/10/11 15:16:01;;;;;;;12.93;4.22;;;;;;;;;;5056897;28;20483;-66
2023/10/11 15:18:28;;;;;;;12.27;3.85;;;;;;;;;;5060716;28;20439;-65
2023/10/11 15:20:57;;;;;;;15.05;4.75;;;;;;;;;;5058881;28;20504;-65
2023/10/11 15:23:24;;;;;;;11.65;4.20;;;;;;;;;;5061839;28;20819;-65